Time;durP1;ratioP1;P1;durP2;ratioP2;P2;SDS_P1;SDS_P2;PMS_P1;PMS_P2;Temp;Humidity;BMP_temperature;BMP_pressure;BME280_temperature;BME280_humidity;BME280_pressure;Samples;Min_cycle;Max_cycle;Signal;HPM_P1;HPM_P2
2023/04/03 00:01:51;;;;;;;0.90;0.57;;;6.00;99.90;;;;;;5094454;28;20437;-60
2023/04/03 00:04:18;;;;;;;1.00;0.60;;;5.90;99.90;;;;;;5095190;28;20418;-59
2023/04/03 00:06:45;;;;;;;1.35;0.70;;;5.90;99.90;;;;;;5095479;28;20898;-59
2023/04/03 00:09:13;;;;;;;1.20;0.60;;;6.00;99.90;;;;;;5094646;28;20830;-60
2023/04/03 00:11:40;;;;;;;0.80;0.50;;;6.00;99.90;;;;;;5094665;28;20433;-60
2023/04/03 00:14:07;;;;;;;0.88;0.60;;;6.10;99.90;;;;;;5094847;28;20774;-60
2023/04/03 00:16:34;;;;;;;1.13;0.60;;;6.20;99.90;;;;;;5094244;28;20426;-61
2023/04/03 00:19:03;;;;;;;0.90;0.70;;;6.10;99.90;;;;;;5094936;28;20434;-61
2023/04/03 00:21:30;;;;;;;1.30;0.60;;;6.00;99.90;;;;;;5094678;28;20433;-60
2023/04/03 00:23:57;;;;;;;1.00;0.60;;;6.00;99.90;;;;;;5094801;28;20499;-60
2023/04/03 00:26:24;;;;;;;1.50;0.60;;;6.10;99.90;;;;;;5094204;28;20868;-59
2023/04/03 00:28:51;;;;;;;1.00;0.70;;;6.20;99.90;;;;;;5094724;28;20718;-59
2023/04/03 00:31:18;;;;;;;0.90;0.60;;;6.30;99.90;;;;;;5094757;28;20715;-59
2023/04/03 00:33:45;;;;;;;0.90;0.60;;;6.20;99.90;;;;;;5094406;28;20425;-59
2023/04/03 00:36:14;;;;;;;1.08;0.70;;;6.10;99.90;;;;;;5094406;28;20429;-60
2023/04/03 00:38:42;;;;;;;0.80;0.60;;;5.90;99.90;;;;;;5094657;28;20478;-59
2023/04/03 00:41:09;;;;;;;1.40;0.70;;;6.20;99.90;;;;;;5094676;28;20448;-59
2023/04/03 00:43:36;;;;;;;0.80;0.50;;;6.00;99.90;;;;;;5094853;28;20831;-60
2023/04/03 00:46:04;;;;;;;1.65;0.60;;;6.00;99.90;;;;;;5094182;28;20839;-60
2023/04/03 00:48:34;;;;;;;1.40;0.68;;;6.00;99.90;;;;;;5094891;28;20410;-59
2023/04/03 00:51:01;;;;;;;0.90;0.60;;;5.90;99.90;;;;;;5094343;28;20491;-59
2023/04/03 00:53:36;;;;;;;1.30;0.60;;;5.90;99.90;;;;;;5096337;28;20420;-60
2023/04/03 00:56:08;;;;;;;0.80;0.60;;;5.80;99.90;;;;;;5098853;28;20492;-60
2023/04/03 00:58:40;;;;;;;0.93;0.60;;;5.70;99.90;;;;;;5098147;28;20422;-60
2023/04/03 01:01:11;;;;;;;0.90;0.70;;;5.70;99.90;;;;;;5098551;28;20745;-60
2023/04/03 01:03:38;;;;;;;1.50;0.70;;;5.80;99.90;;;;;;5097867;28;20429;-60
2023/04/03 01:06:05;;;;;;;0.90;0.60;;;5.80;99.90;;;;;;5097800;28;20417;-60
2023/04/03 01:08:34;;;;;;;1.08;0.70;;;5.80;99.90;;;;;;5098286;28;20422;-60
2023/04/03 01:11:02;;;;;;;1.00;0.65;;;5.70;99.90;;;;;;5098224;28;20428;-59
2023/04/03 01:13:32;;;;;;;0.90;0.70;;;5.50;99.90;;;;;;5097555;28;20420;-59
2023/04/03 01:16:03;;;;;;;1.00;0.70;;;5.40;99.90;;;;;;5098484;28;20844;-59
2023/04/03 01:18:30;;;;;;;1.60;0.60;;;5.50;99.90;;;;;;5098366;28;20429;-60
2023/04/03 01:21:28;;;;;;;1.50;0.60;;;5.50;99.90;;;;;;5097686;28;20417;-60
2023/04/03 01:24:10;;;;;;;1.20;0.60;;;5.60;99.90;;;;;;5097911;28;20421;-60
2023/04/03 01:26:37;;;;;;;1.00;0.70;;;5.60;99.90;;;;;;5097527;28;21077;-60
2023/04/03 01:29:05;;;;;;;1.02;0.70;;;5.70;99.90;;;;;;5098011;28;20421;-58
2023/04/03 01:31:53;;;;;;;1.30;0.70;;;5.70;99.90;;;;;;5097461;28;20426;-59
2023/04/03 01:34:20;;;;;;;1.00;0.60;;;6.00;99.90;;;;;;5098051;28;20860;-59
2023/04/03 01:36:47;;;;;;;1.30;0.70;;;6.00;99.90;;;;;;5098322;28;20422;-59
2023/04/03 01:39:15;;;;;;;0.90;0.60;;;5.90;99.90;;;;;;5096353;28;20469;-59
2023/04/03 01:41:42;;;;;;;1.00;0.60;;;5.80;99.90;;;;;;5096635;28;20429;-59
2023/04/03 01:44:09;;;;;;;1.00;0.70;;;5.90;99.90;;;;;;5097466;28;20424;-59
2023/04/03 01:46:37;;;;;;;1.00;0.70;;;6.10;99.90;;;;;;5097617;28;20433;-60
2023/04/03 01:49:06;;;;;;;0.95;0.63;;;6.00;99.90;;;;;;5096711;28;20418;-60
2023/04/03 01:51:33;;;;;;;1.00;0.60;;;5.90;99.90;;;;;;5097121;28;20425;-59
2023/04/03 01:54:00;;;;;;;0.90;0.60;;;5.90;99.90;;;;;;5097334;28;20421;-60
2023/04/03 01:56:27;;;;;;;1.10;0.60;;;6.00;99.90;;;;;;5096976;28;20433;-59
2023/04/03 01:58:54;;;;;;;1.30;0.60;;;6.00;99.90;;;;;;5097606;28;20461;-60
2023/04/03 02:01:21;;;;;;;1.20;0.60;;;5.90;99.90;;;;;;5097010;28;20463;-60
2023/04/03 02:03:49;;;;;;;1.02;0.70;;;5.90;99.90;;;;;;5095802;28;20810;-60
2023/04/03 02:06:17;;;;;;;1.30;0.60;;;5.90;99.90;;;;;;5097244;28;20453;-60
2023/04/03 02:08:45;;;;;;;0.90;0.65;;;6.00;99.90;;;;;;5096934;28;20422;-59
2023/04/03 02:11:12;;;;;;;0.90;0.70;;;5.90;99.90;;;;;;5097038;28;20433;-60
2023/04/03 02:13:39;;;;;;;1.40;0.70;;;5.70;99.90;;;;;;5097371;28;20505;-59
2023/04/03 02:16:11;;;;;;;1.58;0.70;;;5.70;99.90;;;;;;5097123;28;20414;-59
2023/04/03 02:18:38;;;;;;;1.50;0.70;;;5.70;99.90;;;;;;5097145;28;20421;-59
2023/04/03 02:21:06;;;;;;;1.27;0.70;;;5.80;99.90;;;;;;5097089;28;20425;-59
2023/04/03 02:23:35;;;;;;;1.20;0.70;;;5.90;99.90;;;;;;5096572;28;20417;-59
2023/04/03 02:26:08;;;;;;;1.00;0.70;;;5.90;99.90;;;;;;5096940;28;20713;-59
2023/04/03 02:28:35;;;;;;;1.00;0.60;;;5.90;99.90;;;;;;5096840;28;20418;-59
2023/04/03 02:31:02;;;;;;;0.77;0.60;;;6.00;99.90;;;;;;5096948;28;20848;-59
2023/04/03 02:33:29;;;;;;;1.00;0.70;;;6.10;99.90;;;;;;5096614;28;20890;-59
2023/04/03 02:35:57;;;;;;;0.80;0.60;;;6.30;99.90;;;;;;5096792;28;20844;-59
2023/04/03 02:38:25;;;;;;;1.00;0.63;;;6.40;99.90;;;;;;5095569;28;20425;-60
2023/04/03 02:40:53;;;;;;;1.00;0.70;;;6.30;99.90;;;;;;5096064;28;20506;-59
2023/04/03 02:43:20;;;;;;;1.10;0.68;;;6.10;99.90;;;;;;5096121;28;20509;-59
2023/04/03 02:45:47;;;;;;;1.70;0.77;;;6.00;99.90;;;;;;5096854;28;20833;-59
2023/04/03 02:48:16;;;;;;;1.00;0.60;;;5.90;99.90;;;;;;5096927;28;20414;-60
2023/04/03 02:50:43;;;;;;;0.90;0.70;;;5.80;99.90;;;;;;5096605;28;20712;-60
2023/04/03 02:53:10;;;;;;;0.90;0.60;;;5.80;99.90;;;;;;5096274;28;20426;-59
2023/04/03 02:55:38;;;;;;;0.80;0.60;;;5.90;99.90;;;;;;5093383;28;20421;-60
2023/04/03 02:58:06;;;;;;;0.93;0.80;;;5.90;99.90;;;;;;5096186;28;20612;-59
2023/04/03 03:00:34;;;;;;;1.20;0.60;;;5.80;99.90;;;;;;5095943;28;20470;-60
2023/04/03 03:03:01;;;;;;;0.95;0.68;;;5.70;99.90;;;;;;5096199;28;20433;-60
2023/04/03 03:05:28;;;;;;;1.10;0.68;;;5.70;99.90;;;;;;5095846;28;20414;-60
2023/04/03 03:07:55;;;;;;;0.90;0.60;;;5.70;99.90;;;;;;5096444;28;20722;-59
2023/04/03 03:10:22;;;;;;;1.00;0.63;;;5.70;99.90;;;;;;5095522;28;20410;-60
2023/04/03 03:12:50;;;;;;;0.90;0.60;;;5.50;99.90;;;;;;5096716;28;20421;-60
2023/04/03 03:15:19;;;;;;;0.95;0.75;;;5.40;99.90;;;;;;5094278;28;20421;-59
2023/04/03 03:17:46;;;;;;;1.08;0.63;;;5.30;99.90;;;;;;5095446;28;20488;-60
2023/04/03 03:20:15;;;;;;;1.40;0.70;;;5.30;99.90;;;;;;5094593;28;20452;-59
2023/04/03 03:22:42;;;;;;;1.20;0.70;;;5.30;99.90;;;;;;5094027;28;20429;-60
2023/04/03 03:25:10;;;;;;;1.00;0.60;;;5.20;99.90;;;;;;5094216;28;20453;-60
2023/04/03 03:27:37;;;;;;;0.90;0.70;;;5.40;99.90;;;;;;5093362;28;20772;-60
2023/04/03 03:30:06;;;;;;;0.93;0.68;;;5.40;99.90;;;;;;5093746;28;20410;-59
2023/04/03 03:32:34;;;;;;;1.10;0.70;;;5.20;99.90;;;;;;5094257;28;20421;-60
2023/04/03 03:35:01;;;;;;;0.80;0.60;;;5.20;99.90;;;;;;5093205;28;20418;-60
2023/04/03 03:37:28;;;;;;;1.30;0.60;;;5.20;99.90;;;;;;5092540;28;20422;-59
2023/04/03 03:39:55;;;;;;;1.05;0.60;;;5.10;99.90;;;;;;5092761;28;20459;-59
2023/04/03 03:42:23;;;;;;;1.40;0.70;;;5.10;99.90;;;;;;5093905;28;20864;-59
2023/04/03 03:44:51;;;;;;;0.95;0.60;;;5.00;99.90;;;;;;5095163;28;20581;-61
2023/04/03 03:47:18;;;;;;;0.90;0.60;;;5.10;99.90;;;;;;5094955;28;20635;-60
2023/04/03 03:49:47;;;;;;;1.25;0.70;;;5.10;99.90;;;;;;5092260;28;20828;-60
2023/04/03 03:52:14;;;;;;;1.10;0.70;;;5.20;99.90;;;;;;5095213;28;20441;-59
2023/04/03 03:54:41;;;;;;;1.10;0.70;;;5.30;99.90;;;;;;5094339;28;20417;-60
2023/04/03 03:57:08;;;;;;;1.20;0.70;;;5.30;99.90;;;;;;5095329;28;20434;-60
2023/04/03 03:59:35;;;;;;;0.90;0.70;;;5.20;99.90;;;;;;5094807;28;20430;-59
2023/04/03 04:02:02;;;;;;;1.00;0.60;;;5.20;99.90;;;;;;5095063;28;20426;-59
2023/04/03 04:04:29;;;;;;;0.80;0.60;;;5.30;99.90;;;;;;5093851;28;20433;-59
2023/04/03 04:06:59;;;;;;;1.80;0.70;;;5.30;99.90;;;;;;5094759;28;20849;-60
2023/04/03 04:09:26;;;;;;;0.93;0.60;;;5.30;99.90;;;;;;5094684;28;20418;-59
2023/04/03 04:11:54;;;;;;;1.52;0.60;;;5.60;99.90;;;;;;5093024;28;20425;-60
2023/04/03 04:14:21;;;;;;;1.60;0.60;;;5.80;99.90;;;;;;5095139;28;20418;-61
2023/04/03 04:16:48;;;;;;;0.90;0.60;;;6.00;99.90;;;;;;5095230;28;20426;-60
2023/04/03 04:19:15;;;;;;;1.15;0.60;;;6.10;99.90;;;;;;5094712;28;20418;-59
2023/04/03 04:21:42;;;;;;;0.80;0.60;;;5.80;99.90;;;;;;5094724;28;20429;-60
2023/04/03 04:24:11;;;;;;;1.10;0.60;;;5.50;99.90;;;;;;5094555;28;20725;-61
2023/04/03 04:26:38;;;;;;;1.10;0.70;;;5.40;99.90;;;;;;5093061;28;20429;-60
2023/04/03 04:29:05;;;;;;;1.13;0.70;;;5.30;99.90;;;;;;5094510;28;20417;-61
2023/04/03 04:31:32;;;;;;;1.58;0.80;;;5.40;99.90;;;;;;5092782;28;20413;-60
2023/04/03 04:33:59;;;;;;;1.10;0.70;;;5.30;99.90;;;;;;5094389;28;20424;-60
2023/04/03 04:36:27;;;;;;;1.10;0.60;;;5.40;99.90;;;;;;5094840;28;20729;-60
2023/04/03 04:38:54;;;;;;;1.63;0.70;;;5.40;99.90;;;;;;5092897;28;20418;-60
2023/04/03 04:41:23;;;;;;;1.90;0.70;;;5.30;99.90;;;;;;5094630;28;20434;-60
2023/04/03 04:43:50;;;;;;;1.70;0.70;;;5.30;99.90;;;;;;5095086;28;20450;-61
2023/04/03 04:46:18;;;;;;;1.00;0.70;;;5.30;99.90;;;;;;5094052;28;20417;-60
2023/04/03 04:48:45;;;;;;;1.10;0.70;;;5.40;99.90;;;;;;5093667;28;20418;-59
2023/04/03 04:51:12;;;;;;;1.00;0.60;;;5.60;99.90;;;;;;5093211;28;20429;-61
2023/04/03 04:53:40;;;;;;;1.10;0.60;;;5.50;99.90;;;;;;5093344;28;20417;-60
2023/04/03 04:56:08;;;;;;;1.00;0.60;;;5.40;99.90;;;;;;5092518;28;20725;-60
2023/04/03 04:58:36;;;;;;;1.70;0.60;;;5.30;99.90;;;;;;5092777;28;20489;-60
2023/04/03 05:01:05;;;;;;;2.20;0.70;;;5.20;99.90;;;;;;5092820;28;20422;-60
2023/04/03 05:03:33;;;;;;;0.80;0.60;;;5.20;99.90;;;;;;5092113;28;20437;-60
2023/04/03 05:06:01;;;;;;;0.90;0.60;;;5.20;99.90;;;;;;5093027;28;20743;-60
2023/04/03 05:08:28;;;;;;;0.90;0.68;;;5.30;99.90;;;;;;5094307;28;20413;-60
2023/04/03 05:10:55;;;;;;;0.75;0.50;;;5.50;99.90;;;;;;5093583;28;20416;-60
2023/04/03 05:13:22;;;;;;;0.90;0.55;;;5.50;99.90;;;;;;5094258;28;20437;-60
2023/04/03 05:15:51;;;;;;;1.17;0.70;;;5.60;99.90;;;;;;5090225;28;20425;-60
2023/04/03 05:18:18;;;;;;;0.80;0.60;;;5.70;99.90;;;;;;5091099;28;20970;-60
2023/04/03 05:20:45;;;;;;;0.98;0.60;;;5.80;99.90;;;;;;5092022;28;20745;-59
2023/04/03 05:23:12;;;;;;;1.92;0.60;;;5.70;99.90;;;;;;5091694;28;20422;-59
2023/04/03 05:25:40;;;;;;;0.80;0.60;;;5.70;99.90;;;;;;5093939;28;20418;-60
2023/04/03 05:28:07;;;;;;;0.80;0.60;;;5.90;99.90;;;;;;5093578;28;20421;-59
2023/04/03 05:30:34;;;;;;;1.27;0.70;;;6.00;99.90;;;;;;5091210;28;20411;-59
2023/04/03 05:33:03;;;;;;;1.02;0.60;;;5.90;99.90;;;;;;5091172;28;20810;-59
2023/04/03 05:35:30;;;;;;;0.90;0.60;;;5.90;99.90;;;;;;5091116;28;20845;-59
2023/04/03 05:37:57;;;;;;;1.20;0.60;;;5.90;99.90;;;;;;5090326;28;20908;-59
2023/04/03 05:40:25;;;;;;;1.05;0.60;;;6.00;99.90;;;;;;5095530;28;20436;-59
2023/04/03 05:42:53;;;;;;;0.95;0.65;;;6.00;99.90;;;;;;5095976;28;20512;-59
2023/04/03 05:45:20;;;;;;;1.08;0.60;;;6.00;99.90;;;;;;5096860;28;20418;-58
2023/04/03 05:47:47;;;;;;;0.90;0.60;;;6.00;99.90;;;;;;5098395;28;20421;-59
2023/04/03 05:50:16;;;;;;;2.78;0.60;;;6.00;99.90;;;;;;5096005;28;20410;-59
2023/04/03 05:52:47;;;;;;;0.80;0.60;;;5.90;99.90;;;;;;5096277;28;20470;-59
2023/04/03 05:55:14;;;;;;;0.90;0.60;;;5.90;99.90;;;;;;5096687;28;20722;-59
2023/04/03 05:57:41;;;;;;;0.82;0.60;;;5.80;99.90;;;;;;5095592;28;20461;-58
2023/04/03 06:00:12;;;;;;;1.40;0.70;;;5.60;99.90;;;;;;5095461;28;20429;-58
2023/04/03 06:02:39;;;;;;;1.00;0.60;;;5.70;99.90;;;;;;5095206;28;20425;-58
2023/04/03 06:05:08;;;;;;;1.20;0.70;;;5.60;99.90;;;;;;5092839;28;20429;-59
2023/04/03 06:07:36;;;;;;;0.98;0.60;;;5.70;99.90;;;;;;5095847;28;20645;-60
2023/04/03 06:10:05;;;;;;;0.80;0.60;;;5.80;99.90;;;;;;5094857;28;20444;-60
2023/04/03 06:12:32;;;;;;;0.80;0.60;;;5.70;99.90;;;;;;5095704;28;20425;-60
2023/04/03 06:14:59;;;;;;;1.00;0.70;;;5.80;99.90;;;;;;5095187;28;20426;-60
2023/04/03 06:17:26;;;;;;;0.70;0.60;;;5.70;99.90;;;;;;5094252;28;20436;-60
2023/04/03 06:19:53;;;;;;;1.10;0.60;;;5.70;99.90;;;;;;5094294;28;20480;-60
2023/04/03 06:22:23;;;;;;;0.90;0.60;;;5.70;99.90;;;;;;5095074;28;20790;-60
2023/04/03 06:24:51;;;;;;;1.30;0.70;;;5.80;99.90;;;;;;5094763;28;20429;-60
2023/04/03 06:27:18;;;;;;;0.88;0.60;;;5.70;99.90;;;;;;5093231;28;20422;-60
2023/04/03 06:29:45;;;;;;;1.10;0.60;;;5.70;99.90;;;;;;5097654;28;20752;-60
2023/04/03 06:32:13;;;;;;;0.90;0.60;;;5.70;99.90;;;;;;5110129;28;20424;-61
2023/04/03 06:34:40;;;;;;;1.80;0.60;;;5.80;99.90;;;;;;5116727;28;20431;-61
2023/04/03 06:37:07;;;;;;;1.00;0.60;;;5.70;99.90;;;;;;5113125;28;20450;-61
2023/04/03 06:39:34;;;;;;;0.80;0.60;;;5.50;99.90;;;;;;5100917;28;20453;-61
2023/04/03 06:42:03;;;;;;;1.10;0.60;;;5.60;99.90;;;;;;5092659;28;20491;-61
2023/04/03 06:44:33;;;;;;;1.08;0.60;;;5.80;99.90;;;;;;5093289;28;20829;-61
2023/04/03 06:47:01;;;;;;;0.80;0.60;;;5.70;99.90;;;;;;5094835;28;20429;-61
2023/04/03 06:49:28;;;;;;;0.75;0.60;;;5.80;99.90;;;;;;5092031;28;20443;-61
2023/04/03 06:51:56;;;;;;;1.00;0.60;;;5.70;99.90;;;;;;5092375;28;20433;-61
2023/04/03 06:54:23;;;;;;;1.40;0.60;;;5.90;99.90;;;;;;5093574;28;20445;-61
2023/04/03 06:56:50;;;;;;;0.80;0.60;;;5.90;99.90;;;;;;5092184;28;20461;-61
2023/04/03 06:59:19;;;;;;;1.73;0.60;;;5.90;99.90;;;;;;5094056;28;20496;-61
2023/04/03 07:01:47;;;;;;;2.10;0.90;;;6.00;99.90;;;;;;5105507;28;20447;-61
2023/04/03 07:04:14;;;;;;;1.10;0.60;;;6.20;99.90;;;;;;5111124;28;20427;-61
2023/04/03 07:06:41;;;;;;;9.32;4.70;;;6.50;99.90;;;;;;5099802;28;20552;-61
2023/04/03 07:09:08;;;;;;;1.15;0.70;;;6.50;99.90;;;;;;5105166;28;20509;-60
2023/04/03 07:11:36;;;;;;;1.27;0.60;;;6.40;99.90;;;;;;5095321;28;20428;-61
2023/04/03 07:14:03;;;;;;;1.58;0.60;;;6.60;99.90;;;;;;5091440;28;20421;-60
2023/04/03 07:16:32;;;;;;;0.90;0.60;;;6.40;99.90;;;;;;5093701;28;20444;-60
2023/04/03 07:18:59;;;;;;;0.70;0.50;;;6.60;99.90;;;;;;5105666;28;20527;-60
2023/04/03 07:21:26;;;;;;;1.30;0.60;;;6.50;99.90;;;;;;5108595;28;20424;-60
2023/04/03 07:23:53;;;;;;;1.13;0.60;;;6.60;99.90;;;;;;5109392;28;20488;-60
2023/04/03 07:26:22;;;;;;;1.30;0.70;;;6.80;99.90;;;;;;5110691;28;20723;-61
2023/04/03 07:28:49;;;;;;;1.60;0.70;;;6.90;99.90;;;;;;5112780;28;20875;-60
2023/04/03 07:31:18;;;;;;;1.00;0.60;;;7.10;99.90;;;;;;5114399;28;20427;-65
2023/04/03 07:33:47;;;;;;;1.27;0.60;;;7.10;99.90;;;;;;5113009;28;20458;-60
2023/04/03 07:36:17;;;;;;;1.40;0.60;;;7.20;99.90;;;;;;5109760;28;20440;-60
2023/04/03 07:38:44;;;;;;;1.20;0.50;;;7.30;99.90;;;;;;5092212;28;20425;-61
2023/04/03 07:41:15;;;;;;;0.80;0.60;;;7.50;99.90;;;;;;5093621;28;20445;-60
2023/04/03 07:43:42;;;;;;;0.77;0.60;;;7.60;99.90;;;;;;5092474;28;20838;-60
2023/04/03 07:46:10;;;;;;;2.25;0.70;;;7.50;99.90;;;;;;5105840;28;20435;-61
2023/04/03 07:48:38;;;;;;;0.90;0.60;;;7.60;99.90;;;;;;5113528;28;20420;-61
2023/04/03 07:51:06;;;;;;;1.70;0.70;;;7.40;99.90;;;;;;5113333;28;20716;-60
2023/04/03 07:53:34;;;;;;;1.10;0.60;;;7.30;99.90;;;;;;5112751;28;20417;-60
2023/04/03 07:56:02;;;;;;;0.93;0.60;;;7.30;99.90;;;;;;5103745;28;20442;-60
2023/04/03 07:58:30;;;;;;;1.70;0.60;;;7.40;99.90;;;;;;5092556;28;20521;-60
2023/04/03 08:00:58;;;;;;;3.27;1.43;;;7.50;99.90;;;;;;5091575;28;20508;-60
2023/04/03 08:03:25;;;;;;;0.98;0.60;;;7.60;99.90;;;;;;5089135;28;20418;-60
2023/04/03 08:05:53;;;;;;;1.05;0.70;;;7.40;99.90;;;;;;5091387;28;20441;-60
2023/04/03 08:08:24;;;;;;;1.30;0.70;;;7.40;99.90;;;;;;5092387;28;20475;-61
2023/04/03 08:10:52;;;;;;;1.00;0.60;;;7.40;99.90;;;;;;5109503;28;20450;-61
2023/04/03 08:13:20;;;;;;;1.20;0.60;;;7.40;99.90;;;;;;5112576;28;20412;-60
2023/04/03 08:15:47;;;;;;;2.03;0.70;;;7.40;99.90;;;;;;5113207;28;20416;-61
2023/04/03 08:18:14;;;;;;;2.10;0.70;;;7.20;99.90;;;;;;5110287;28;20430;-61
2023/04/03 08:20:41;;;;;;;0.80;0.60;;;7.10;99.90;;;;;;5110551;28;20476;-60
2023/04/03 08:23:09;;;;;;;2.00;0.70;;;7.10;99.90;;;;;;5112281;28;20424;-60
2023/04/03 08:25:40;;;;;;;1.40;0.60;;;7.20;99.90;;;;;;5112361;28;20610;-60
2023/04/03 08:28:08;;;;;;;0.90;0.57;;;7.10;99.90;;;;;;5113613;28;20459;-60
2023/04/03 08:30:37;;;;;;;1.80;0.80;;;7.00;99.90;;;;;;5111765;28;20450;-60
2023/04/03 08:33:04;;;;;;;0.90;0.70;;;7.00;99.90;;;;;;5111937;28;20424;-60
2023/04/03 08:35:31;;;;;;;1.30;0.70;;;7.10;99.90;;;;;;5106474;28;20580;-60
2023/04/03 08:37:59;;;;;;;1.00;0.70;;;6.90;99.90;;;;;;5109264;28;20598;-63
2023/04/03 08:40:26;;;;;;;1.15;0.70;;;7.00;99.90;;;;;;5109679;28;20442;-60
2023/04/03 08:43:11;;;;;;;1.00;0.70;;;7.20;99.90;;;;;;5095764;28;20436;-60
2023/04/03 08:45:46;;;;;;;0.80;0.60;;;7.30;99.90;;;;;;5096036;28;20441;-60
2023/04/03 08:48:17;;;;;;;0.90;0.60;;;7.20;99.90;;;;;;5101895;28;20771;-60
2023/04/03 08:50:50;;;;;;;1.00;0.70;;;7.30;99.90;;;;;;5103113;28;20426;-60
2023/04/03 08:53:21;;;;;;;1.00;0.70;;;7.10;99.90;;;;;;5090636;28;20598;-62
2023/04/03 08:55:50;;;;;;;0.82;0.60;;;7.30;99.90;;;;;;5098944;28;20844;-60
2023/04/03 08:58:23;;;;;;;1.10;0.70;;;7.50;99.90;;;;;;5100275;28;20437;-50
2023/04/03 09:00:55;;;;;;;5.00;2.10;;;7.40;99.90;;;;;;5090544;28;20927;-47
2023/04/03 09:03:24;;;;;;;3.85;2.10;;;7.40;99.90;;;;;;5101945;28;20973;-48
2023/04/03 09:05:59;;;;;;;1.20;0.70;;;7.50;99.90;;;;;;5102305;28;20821;-50
2023/04/03 09:08:30;;;;;;;0.70;0.52;;;7.70;99.90;;;;;;5106937;28;20420;-49
2023/04/03 09:11:10;;;;;;;0.90;0.60;;;7.50;99.90;;;;;;5099832;28;20416;-53
2023/04/03 09:13:50;;;;;;;1.20;0.60;;;7.50;99.90;;;;;;5100167;28;20528;-48
2023/04/03 09:16:28;;;;;;;2.08;0.70;;;7.70;99.90;;;;;;5103057;28;20423;-53
2023/04/03 09:19:09;;;;;;;2.03;0.70;;;7.80;99.90;;;;;;5098119;28;20418;-51
2023/04/03 09:21:42;;;;;;;2.90;1.77;;;7.90;99.90;;;;;;5105778;28;20437;-51
2023/04/03 09:24:13;;;;;;;2.28;0.90;;;8.20;99.90;;;;;;5101925;28;20421;-54
2023/04/03 09:26:47;;;;;;;0.90;0.60;;;8.00;99.90;;;;;;5104717;28;20428;-50
2023/04/03 09:29:20;;;;;;;2.13;0.70;;;8.10;99.90;;;;;;5099714;28;20463;-52
2023/04/03 09:31:51;;;;;;;1.27;0.70;;;8.30;99.90;;;;;;5110462;28;20443;-54
2023/04/03 09:34:23;;;;;;;0.80;0.60;;;8.30;99.90;;;;;;5111158;28;20424;-53
2023/04/03 09:36:54;;;;;;;1.60;0.70;;;8.20;99.90;;;;;;5116827;28;20505;-53
2023/04/03 09:39:26;;;;;;;1.40;0.70;;;8.10;99.90;;;;;;5114825;28;20412;-53
2023/04/03 09:42:05;;;;;;;1.30;0.70;;;8.00;99.90;;;;;;5115306;28;20432;-54
2023/04/03 09:44:36;;;;;;;1.20;0.60;;;8.10;99.90;;;;;;5114549;28;20459;-49
2023/04/03 09:47:21;;;;;;;1.35;0.70;;;8.10;99.90;;;;;;5110436;28;20446;-52
2023/04/03 09:49:49;;;;;;;1.00;0.70;;;8.00;99.90;;;;;;5093400;28;21053;-49
2023/04/03 09:52:24;;;;;;;2.20;0.70;;;7.90;99.90;;;;;;5095547;28;20429;-53
2023/04/03 09:54:52;;;;;;;0.90;0.60;;;8.00;99.90;;;;;;5096996;28;20841;-53
2023/04/03 09:57:20;;;;;;;1.60;0.60;;;8.00;99.90;;;;;;5101996;28;20977;-50
2023/04/03 09:59:59;;;;;;;2.65;0.60;;;7.90;99.90;;;;;;5094735;28;20433;-49
2023/04/03 10:02:39;;;;;;;2.70;0.80;;;7.80;99.90;;;;;;5094884;28;20439;-55
2023/04/03 10:05:32;;;;;;;1.00;0.60;;;7.80;99.90;;;;;;5102089;28;20818;-49
2023/04/03 10:08:23;;;;;;;1.23;0.60;;;7.70;99.90;;;;;;5094040;28;20517;-56
2023/04/03 10:11:09;;;;;;;1.50;0.60;;;7.70;99.90;;;;;;5101356;28;20462;-54
2023/04/03 10:13:50;;;;;;;1.60;0.70;;;7.80;99.90;;;;;;5106052;28;20429;-56
2023/04/03 10:16:24;;;;;;;1.20;0.60;;;7.90;99.90;;;;;;5099428;28;20482;-52
2023/04/03 10:19:04;;;;;;;0.80;0.60;;;8.00;99.90;;;;;;5105983;28;20503;-55
2023/04/03 10:21:42;;;;;;;0.75;0.60;;;8.10;99.90;;;;;;5111902;28;20460;-55
2023/04/03 10:24:15;;;;;;;0.90;0.70;;;8.20;99.90;;;;;;5114805;28;20423;-53
2023/04/03 10:26:53;;;;;;;1.40;0.60;;;8.10;99.90;;;;;;5098042;28;20860;-51
2023/04/03 10:29:37;;;;;;;1.70;0.60;;;8.10;99.90;;;;;;5105357;28;20491;-51
2023/04/03 10:32:25;;;;;;;1.58;0.60;;;8.30;99.90;;;;;;5113518;28;20450;-55
2023/04/03 10:34:59;;;;;;;1.08;0.60;;;8.30;99.90;;;;;;5103140;28;20448;-52
2023/04/03 10:37:36;;;;;;;0.85;0.50;;;8.40;99.90;;;;;;5093990;28;20425;-55
2023/04/03 10:40:13;;;;;;;1.90;1.10;;;8.40;99.90;;;;;;5108562;28;20864;-52
2023/04/03 10:42:47;;;;;;;1.00;0.60;;;8.30;99.90;;;;;;5114620;28;20436;-55
2023/04/03 10:45:24;;;;;;;2.85;2.00;;;8.10;99.90;;;;;;5111522;28;20428;-51
2023/04/03 10:48:03;;;;;;;1.13;0.60;;;8.20;99.90;;;;;;5103694;28;20436;-50
2023/04/03 10:50:40;;;;;;;1.17;0.60;;;8.10;99.90;;;;;;5098140;28;20420;-53
2023/04/03 10:53:18;;;;;;;1.30;0.60;;;8.10;99.90;;;;;;5097438;28;20426;-53
2023/04/03 10:55:53;;;;;;;0.90;0.60;;;7.80;99.90;;;;;;5092540;28;20414;-50
2023/04/03 10:58:25;;;;;;;1.90;0.60;;;8.00;99.90;;;;;;5092988;28;20430;-54
2023/04/03 11:00:56;;;;;;;0.70;0.53;;;8.00;99.90;;;;;;5092392;28;20418;-51
2023/04/03 11:03:32;;;;;;;0.90;0.50;;;8.00;99.90;;;;;;5103684;28;20424;-51
2023/04/03 11:06:02;;;;;;;0.90;0.70;;;8.20;99.90;;;;;;5112718;28;20473;-50
2023/04/03 11:08:37;;;;;;;0.90;0.60;;;8.30;99.90;;;;;;5097183;28;20509;-54
2023/04/03 11:11:09;;;;;;;1.30;0.50;;;8.10;99.90;;;;;;5105288;28;20432;-52
2023/04/03 11:13:42;;;;;;;0.85;0.50;;;8.20;99.90;;;;;;5104531;28;20418;-52
2023/04/03 11:16:09;;;;;;;2.08;0.60;;;8.20;99.90;;;;;;5089364;28;20826;-52
2023/04/03 11:18:44;;;;;;;1.20;0.50;;;8.20;99.90;;;;;;5094398;28;20431;-51
2023/04/03 11:21:19;;;;;;;1.52;0.50;;;8.20;99.90;;;;;;5107460;28;20522;-53
2023/04/03 11:23:47;;;;;;;1.20;0.50;;;8.40;99.90;;;;;;5092153;28;20430;-54
2023/04/03 11:26:17;;;;;;;1.00;0.45;;;8.40;99.90;;;;;;5095297;28;20743;-52
2023/04/03 11:28:45;;;;;;;3.25;1.67;;;8.30;99.90;;;;;;5095454;28;20426;-51
2023/04/03 11:31:26;;;;;;;3.00;1.33;;;8.20;99.90;;;;;;5091287;28;20726;-52
2023/04/03 11:34:06;;;;;;;2.00;0.63;;;8.20;99.90;;;;;;5093460;28;20725;-52
2023/04/03 11:36:41;;;;;;;1.30;0.50;;;8.20;99.90;;;;;;5109168;28;20435;-48
2023/04/03 11:39:17;;;;;;;0.77;0.40;;;8.20;99.90;;;;;;5109481;28;20825;-46
2023/04/03 11:41:46;;;;;;;1.80;0.50;;;8.10;99.90;;;;;;5106481;28;20842;-52
2023/04/03 11:44:33;;;;;;;0.70;0.50;;;8.20;99.90;;;;;;5106493;28;20487;-47
2023/04/03 11:47:02;;;;;;;0.93;0.50;;;8.30;99.90;;;;;;5094843;28;20522;-50
2023/04/03 11:49:59;;;;;;;0.70;0.50;;;8.40;99.90;;;;;;5097010;28;20923;-51
2023/04/03 11:53:00;;;;;;;1.30;0.60;;;8.40;99.90;;;;;;5099875;28;20490;-52
2023/04/03 11:55:55;;;;;;;0.90;0.50;;;8.40;99.90;;;;;;5110794;28;20419;-46
2023/04/03 11:58:24;;;;;;;1.10;0.50;;;8.50;99.90;;;;;;5108284;28;20446;-52
2023/04/03 12:01:07;;;;;;;1.00;0.40;;;8.50;99.90;;;;;;5100157;28;20435;-51
2023/04/03 12:04:06;;;;;;;0.75;0.40;;;8.40;99.90;;;;;;5092695;28;20430;-51
2023/04/03 12:07:04;;;;;;;0.80;0.40;;;8.40;99.90;;;;;;5092832;28;20440;-50
2023/04/03 12:09:53;;;;;;;1.00;0.50;;;8.50;99.90;;;;;;5094677;28;20909;-49
2023/04/03 12:12:36;;;;;;;1.00;0.60;;;8.20;99.90;;;;;;5070858;28;20519;-50
2023/04/03 12:15:45;;;;;;;1.15;0.50;;;8.40;99.90;;;;;;5090803;28;20456;-51
2023/04/03 12:18:52;;;;;;;0.70;0.50;;;8.40;99.90;;;;;;5094286;28;20436;-51
2023/04/03 12:21:22;;;;;;;1.40;0.50;;;8.40;99.90;;;;;;5111354;28;20424;-49
2023/04/03 12:24:04;;;;;;;1.63;0.50;;;8.50;99.90;;;;;;5091700;28;20430;-51
2023/04/03 12:26:39;;;;;;;1.10;0.50;;;8.40;99.90;;;;;;5091112;28;20474;-53
2023/04/03 12:29:18;;;;;;;1.35;0.50;;;8.30;99.90;;;;;;5090769;28;20438;-53
2023/04/03 12:31:56;;;;;;;0.70;0.50;;;8.20;99.90;;;;;;5101646;28;21099;-50
2023/04/03 12:34:46;;;;;;;0.80;0.50;;;8.30;99.90;;;;;;5092368;28;20414;-50
2023/04/03 12:37:29;;;;;;;1.20;0.50;;;8.30;99.90;;;;;;5089666;28;20681;-52
2023/04/03 12:40:08;;;;;;;1.67;1.20;;;8.30;99.90;;;;;;5093297;28;20853;-48
2023/04/03 12:43:25;;;;;;;3.20;1.80;;;8.20;99.90;;;;;;5102118;28;20432;-51
2023/04/03 12:45:59;;;;;;;1.27;0.60;;;8.30;99.90;;;;;;5043779;28;20430;-50
2023/04/03 12:48:31;;;;;;;1.08;0.50;;;8.30;99.90;;;;;;5092150;28;20518;-50
2023/04/03 12:51:01;;;;;;;1.90;0.50;;;8.20;99.90;;;;;;5103240;28;20437;-47
2023/04/03 12:53:34;;;;;;;1.23;0.50;;;8.10;99.90;;;;;;5097027;28;20436;-47
2023/04/03 12:56:26;;;;;;;0.80;0.40;;;8.20;99.90;;;;;;5093778;28;20441;-48
2023/04/03 12:58:57;;;;;;;1.10;0.50;;;8.00;99.90;;;;;;5096419;28;20430;-49
2023/04/03 13:01:26;;;;;;;0.80;0.50;;;8.10;99.90;;;;;;5109249;28;20895;-51
2023/04/03 13:03:57;;;;;;;1.00;0.50;;;8.40;99.90;;;;;;5103619;28;20425;-52
2023/04/03 13:06:29;;;;;;;1.20;0.50;;;8.40;99.90;;;;;;5102670;28;20504;-53
2023/04/03 13:09:00;;;;;;;1.00;0.50;;;8.60;99.90;;;;;;5100105;28;20510;-51
2023/04/03 13:11:36;;;;;;;0.90;0.50;;;8.80;99.90;;;;;;5116584;28;20473;-49
2023/04/03 13:14:06;;;;;;;0.60;0.50;;;8.90;99.90;;;;;;5115235;28;20415;-47
2023/04/03 13:16:37;;;;;;;0.90;0.50;;;8.90;99.90;;;;;;5115027;28;20523;-50
2023/04/03 13:19:07;;;;;;;0.82;0.50;;;9.10;99.90;;;;;;5096421;28;20434;-50